Time;durP1;ratioP1;P1;durP2;ratioP2;P2;SDS_P1;SDS_P2;PMS_P1;PMS_P2;Temp;Humidity;BMP_temperature;BMP_pressure;BME280_temperature;BME280_humidity;BME280_pressure;Samples;Min_cycle;Max_cycle;Signal;HPM_P1;HPM_P2
2023/04/04 00:00:40;;;;;;;5.13;1.80;;;-2.60;99.90;;;;;;5038776;28;25054;-73
2023/04/04 00:03:07;;;;;;;6.43;1.23;;;-2.60;99.90;;;;;;5038143;28;25059;-72
2023/04/04 00:05:35;;;;;;;5.28;1.55;;;-2.60;99.90;;;;;;5038320;28;25060;-73
2023/04/04 00:08:03;;;;;;;4.50;1.30;;;-2.60;99.90;;;;;;5036543;28;25131;-72
2023/04/04 00:10:30;;;;;;;6.40;1.42;;;-2.70;99.90;;;;;;5020487;28;25059;-73
2023/04/04 00:12:57;;;;;;;4.03;1.30;;;-2.70;99.90;;;;;;5020495;28;25063;-73
2023/04/04 00:15:26;;;;;;;3.42;1.45;;;-2.70;99.90;;;;;;5038120;28;25063;-73
2023/04/04 00:17:53;;;;;;;3.70;1.45;;;-2.70;99.90;;;;;;5038176;28;25097;-72
2023/04/04 00:20:20;;;;;;;4.07;1.48;;;-2.80;99.90;;;;;;5038128;28;25072;-73
2023/04/04 00:22:48;;;;;;;5.13;1.40;;;-2.80;99.90;;;;;;5037993;28;25100;-73
2023/04/04 00:25:15;;;;;;;3.45;1.70;;;-2.80;99.90;;;;;;5037792;28;25107;-73
2023/04/04 00:27:42;;;;;;;5.53;1.58;;;-2.80;99.90;;;;;;5037766;28;25072;-73
2023/04/04 00:30:11;;;;;;;2.90;1.48;;;-2.90;99.90;;;;;;5037675;28;25138;-73
2023/04/04 00:32:39;;;;;;;5.93;1.40;;;-2.90;99.90;;;;;;5037599;28;25075;-73
2023/04/04 00:35:06;;;;;;;3.67;1.45;;;-2.90;99.90;;;;;;5037535;28;25094;-73
2023/04/04 00:37:34;;;;;;;3.72;1.67;;;-2.90;99.90;;;;;;5019736;28;25106;-73
2023/04/04 00:40:03;;;;;;;3.90;1.70;;;-2.90;99.90;;;;;;5036159;28;25062;-73
2023/04/04 00:42:32;;;;;;;2.85;1.40;;;-3.00;99.90;;;;;;5019972;28;25066;-73
2023/04/04 00:45:00;;;;;;;5.45;1.95;;;-3.00;99.90;;;;;;5019700;28;25122;-73
2023/04/04 00:47:31;;;;;;;4.90;1.77;;;-3.00;99.90;;;;;;5037353;28;25076;-73
2023/04/04 00:49:58;;;;;;;4.57;1.40;;;-3.00;99.90;;;;;;5037053;28;25063;-73
2023/04/04 00:52:26;;;;;;;4.75;1.60;;;-3.00;99.90;;;;;;5019164;28;25061;-73
2023/04/04 00:54:55;;;;;;;9.07;2.03;;;-3.00;99.90;;;;;;5037063;28;25079;-73
2023/04/04 00:57:23;;;;;;;3.15;1.20;;;-3.10;99.90;;;;;;5037177;28;25073;-73
2023/04/04 00:59:50;;;;;;;2.97;1.50;;;-3.10;99.90;;;;;;5037005;28;25058;-73
2023/04/04 01:02:17;;;;;;;4.10;1.60;;;-3.10;99.90;;;;;;5037195;28;25062;-73
2023/04/04 01:04:46;;;;;;;3.53;1.40;;;-3.10;99.90;;;;;;5036985;28;25063;-73
2023/04/04 01:07:13;;;;;;;3.90;1.98;;;-3.20;99.90;;;;;;5036892;28;25056;-73
2023/04/04 01:09:40;;;;;;;6.97;1.55;;;-3.20;99.90;;;;;;5019300;28;25084;-73
2023/04/04 01:12:08;;;;;;;6.80;1.60;;;-3.20;99.90;;;;;;5037360;28;25124;-73
2023/04/04 01:14:35;;;;;;;8.32;1.75;;;-3.20;99.90;;;;;;5019391;28;25109;-73
2023/04/04 01:17:02;;;;;;;3.47;1.35;;;-3.20;99.90;;;;;;5037071;28;25094;-73
2023/04/04 01:20:02;;;;;;;4.53;1.73;;;-3.20;99.90;;;;;;5036731;28;25064;-73
2023/04/04 01:22:31;;;;;;;3.83;1.30;;;-3.20;99.90;;;;;;5031859;28;25069;-73
2023/04/04 01:25:00;;;;;;;5.65;1.70;;;-3.20;99.90;;;;;;5036693;28;25071;-73
2023/04/04 01:27:28;;;;;;;6.90;1.77;;;-3.30;99.90;;;;;;5036639;28;25071;-73
2023/04/04 01:29:56;;;;;;;2.90;1.33;;;-3.30;99.90;;;;;;5037162;28;25055;-73
2023/04/04 01:32:45;;;;;;;5.13;1.90;;;-3.30;99.90;;;;;;5036862;28;25068;-73
2023/04/04 01:35:24;;;;;;;3.28;1.40;;;-3.30;99.90;;;;;;5036506;28;25161;-73
2023/04/04 01:38:15;;;;;;;2.88;1.50;;;-3.30;99.90;;;;;;5036915;28;25079;-73
2023/04/04 01:40:48;;;;;;;5.10;1.42;;;-3.30;99.90;;;;;;5036663;28;25081;-73
2023/04/04 01:43:16;;;;;;;4.20;1.52;;;-3.30;99.90;;;;;;5036425;28;25087;-73
2023/04/04 01:45:44;;;;;;;3.47;1.38;;;-3.40;99.90;;;;;;5036975;28;25066;-73
2023/04/04 01:48:15;;;;;;;5.53;1.95;;;-3.40;99.90;;;;;;5036113;28;25061;-73
2023/04/04 01:50:43;;;;;;;4.47;1.58;;;-3.40;99.90;;;;;;5036196;28;25052;-73
2023/04/04 01:53:10;;;;;;;9.07;1.70;;;-3.40;99.90;;;;;;5036534;28;25091;-73
2023/04/04 01:55:38;;;;;;;3.58;1.30;;;-3.40;99.90;;;;;;5036233;28;25058;-73
2023/04/04 01:58:06;;;;;;;7.40;1.60;;;-3.40;99.90;;;;;;5018687;28;25096;-73
2023/04/04 02:00:33;;;;;;;3.53;1.70;;;-3.30;99.90;;;;;;5036968;28;25130;-73
2023/04/04 02:03:01;;;;;;;5.95;1.67;;;-3.30;99.90;;;;;;5036303;28;25079;-73
2023/04/04 02:05:28;;;;;;;3.95;1.67;;;-3.30;99.90;;;;;;5036226;28;25074;-73
2023/04/04 02:07:56;;;;;;;3.28;1.50;;;-3.40;99.90;;;;;;5036363;28;25063;-73
2023/04/04 02:10:24;;;;;;;3.42;1.30;;;-3.40;99.90;;;;;;5036251;28;25054;-73
2023/04/04 02:12:55;;;;;;;4.93;1.30;;;-3.40;99.90;;;;;;5036104;28;25060;-73
2023/04/04 02:15:22;;;;;;;5.72;1.60;;;-3.40;99.90;;;;;;5036161;28;25057;-73
2023/04/04 02:17:50;;;;;;;4.82;1.33;;;-3.40;99.90;;;;;;5036375;28;25070;-73
2023/04/04 02:20:18;;;;;;;3.35;1.58;;;-3.40;99.90;;;;;;5016751;28;25092;-73
2023/04/04 02:22:55;;;;;;;3.88;1.73;;;-3.40;99.90;;;;;;5035958;28;25089;-73
2023/04/04 02:25:24;;;;;;;2.60;1.38;;;-3.50;99.90;;;;;;5035519;28;25113;-73
2023/04/04 02:27:51;;;;;;;6.45;1.67;;;-3.50;99.90;;;;;;5035957;28;25106;-73
2023/04/04 02:30:19;;;;;;;7.65;1.52;;;-3.50;99.90;;;;;;5018481;28;25131;-73
2023/04/04 02:32:46;;;;;;;5.32;1.52;;;-3.50;99.90;;;;;;5018333;28;25080;-73
2023/04/04 02:35:15;;;;;;;5.22;1.83;;;-3.50;99.90;;;;;;5018455;28;25045;-73
2023/04/04 02:37:46;;;;;;;4.40;1.70;;;-3.50;99.90;;;;;;5035843;28;25068;-73
2023/04/04 02:40:13;;;;;;;3.08;1.27;;;-3.50;99.90;;;;;;5018297;28;25060;-73
2023/04/04 02:42:44;;;;;;;3.42;1.35;;;-3.50;99.90;;;;;;5035806;28;25058;-73
2023/04/04 02:45:13;;;;;;;28.20;6.80;;;-3.50;99.90;;;;;;5018382;28;25084;-73
2023/04/04 02:47:41;;;;;;;115.60;26.20;;;-3.50;99.90;;;;;;5018225;28;25070;-73
2023/04/04 02:50:10;;;;;;;157.90;43.60;;;-3.50;99.90;;;;;;5035734;28;25131;-73
2023/04/04 02:52:38;;;;;;;127.35;34.90;;;-3.50;99.90;;;;;;5035706;28;25074;-74
2023/04/04 02:55:06;;;;;;;101.57;27.90;;;-3.50;99.90;;;;;;5018130;28;25069;-74
2023/04/04 02:57:34;;;;;;;21.35;6.82;;;-3.50;99.90;;;;;;5035730;28;25058;-74
2023/04/04 03:00:03;;;;;;;7.45;2.20;;;-3.50;99.90;;;;;;5018049;28;25051;-74
2023/04/04 03:02:30;;;;;;;8.43;2.30;;;-3.50;99.90;;;;;;5035578;28;25117;-74
2023/04/04 03:04:57;;;;;;;5.63;1.95;;;-3.50;99.90;;;;;;5018290;28;25068;-74
2023/04/04 03:07:25;;;;;;;4.78;1.55;;;-3.50;99.90;;;;;;5035819;28;25119;-74
2023/04/04 03:09:52;;;;;;;4.13;1.20;;;-3.50;99.90;;;;;;5034895;28;25082;-74
2023/04/04 03:12:22;;;;;;;9.38;2.33;;;-3.50;99.90;;;;;;5018154;28;25107;-74
2023/04/04 03:14:50;;;;;;;13.00;3.55;;;-3.50;99.90;;;;;;5037926;28;25119;-74
2023/04/04 03:17:17;;;;;;;14.20;2.90;;;-3.50;99.90;;;;;;5039094;28;25122;-74
2023/04/04 03:19:44;;;;;;;26.27;8.63;;;-3.50;99.90;;;;;;5038947;28;25062;-74
2023/04/04 03:22:12;;;;;;;22.77;10.50;;;-3.50;99.90;;;;;;5039375;28;25062;-74
2023/04/04 03:24:39;;;;;;;40.08;14.75;;;-3.50;99.90;;;;;;5021323;28;25131;-74
2023/04/04 03:27:07;;;;;;;26.25;10.18;;;-3.50;99.90;;;;;;5021343;28;25149;-74
2023/04/04 03:29:35;;;;;;;24.00;8.95;;;-3.50;99.90;;;;;;5038979;28;25063;-74
2023/04/04 03:32:02;;;;;;;20.20;7.43;;;-3.50;99.90;;;;;;5039216;28;25055;-74
2023/04/04 03:34:30;;;;;;;13.98;4.53;;;-3.50;99.90;;;;;;5021179;28;25177;-74
2023/04/04 03:36:58;;;;;;;10.45;4.10;;;-3.50;99.90;;;;;;5039282;28;25111;-74
2023/04/04 03:39:29;;;;;;;9.40;3.45;;;-3.40;99.90;;;;;;5020867;28;25089;-74
2023/04/04 03:41:57;;;;;;;4.60;1.77;;;-3.40;99.90;;;;;;5038859;28;25076;-74
2023/04/04 03:44:25;;;;;;;5.15;1.77;;;-3.40;99.90;;;;;;5020971;28;25099;-74
2023/04/04 03:46:53;;;;;;;4.40;2.00;;;-3.40;99.90;;;;;;5018219;28;25089;-74
2023/04/04 03:49:21;;;;;;;4.20;1.60;;;-3.40;99.90;;;;;;4999296;28;25156;-74
2023/04/04 03:51:52;;;;;;;6.38;1.98;;;-3.50;99.90;;;;;;5000079;28;25084;-74
2023/04/04 03:54:20;;;;;;;3.10;1.20;;;-3.50;99.90;;;;;;5018504;28;25067;-74
2023/04/04 03:56:48;;;;;;;3.25;1.50;;;-3.50;99.90;;;;;;5018717;28;25082;-74
2023/04/04 03:59:15;;;;;;;4.57;1.40;;;-3.50;99.90;;;;;;5018709;28;25103;-74
2023/04/04 04:01:43;;;;;;;8.40;1.73;;;-3.60;99.90;;;;;;5001271;28;25055;-74
2023/04/04 04:04:10;;;;;;;2.65;1.00;;;-3.60;99.90;;;;;;5018925;28;25120;-74
2023/04/04 04:06:37;;;;;;;3.28;1.65;;;-3.60;99.90;;;;;;5018618;28;25088;-74
2023/04/04 04:09:04;;;;;;;5.03;1.58;;;-3.60;99.90;;;;;;5000160;28;25151;-74
2023/04/04 04:11:31;;;;;;;3.58;1.50;;;-3.60;99.90;;;;;;5018200;28;25068;-74
2023/04/04 04:13:59;;;;;;;2.97;1.65;;;-3.60;99.90;;;;;;5018620;28;25152;-74
2023/04/04 04:16:27;;;;;;;4.45;1.55;;;-3.60;99.90;;;;;;4999908;28;25095;-74
2023/04/04 04:18:54;;;;;;;1.67;0.98;;;-3.60;99.90;;;;;;5018006;28;25098;-74
2023/04/04 04:21:21;;;;;;;5.68;1.33;;;-3.60;99.90;;;;;;5018456;28;25064;-74
2023/04/04 04:23:49;;;;;;;3.50;1.30;;;-3.60;99.90;;;;;;5000573;28;25054;-74
2023/04/04 04:26:16;;;;;;;5.32;1.30;;;-3.60;99.90;;;;;;5017697;28;25068;-74
2023/04/04 04:28:46;;;;;;;4.20;1.20;;;-3.60;99.90;;;;;;5000367;28;25133;-74
2023/04/04 04:31:14;;;;;;;4.90;1.33;;;-3.70;99.90;;;;;;5018109;28;25094;-74
2023/04/04 04:33:42;;;;;;;2.55;1.10;;;-3.70;99.90;;;;;;5018125;28;25080;-74
2023/04/04 04:36:09;;;;;;;2.65;1.25;;;-3.70;99.90;;;;;;5000688;28;25069;-74
2023/04/04 04:38:37;;;;;;;4.25;1.48;;;-3.70;99.90;;;;;;5017615;28;25072;-74
2023/04/04 04:41:04;;;;;;;2.60;1.20;;;-3.70;99.90;;;;;;5000152;28;25058;-74
2023/04/04 04:43:31;;;;;;;5.72;1.25;;;-3.70;99.90;;;;;;5017645;28;25108;-74
2023/04/04 04:45:59;;;;;;;6.70;1.73;;;-3.70;99.90;;;;;;5018040;28;25089;-74
2023/04/04 04:48:26;;;;;;;5.70;1.33;;;-3.70;99.90;;;;;;5031323;28;25082;-74
2023/04/04 04:50:53;;;;;;;3.38;1.60;;;-3.70;99.90;;;;;;5037630;28;25123;-74
2023/04/04 04:53:21;;;;;;;2.70;1.25;;;-3.80;99.90;;;;;;5037222;28;25133;-74
2023/04/04 04:55:51;;;;;;;2.80;1.45;;;-3.70;99.90;;;;;;5037237;28;25055;-74
2023/04/04 04:58:22;;;;;;;3.17;1.27;;;-3.80;99.90;;;;;;5037274;28;25063;-74
2023/04/04 05:00:56;;;;;;;5.75;1.95;;;-3.80;99.90;;;;;;5019567;28;25127;-74
2023/04/04 05:03:24;;;;;;;2.42;1.20;;;-3.80;99.90;;;;;;5019741;28;25107;-74
2023/04/04 05:05:51;;;;;;;3.38;1.38;;;-3.80;99.90;;;;;;5019518;28;25110;-74
2023/04/04 05:08:18;;;;;;;2.15;1.02;;;-3.90;99.90;;;;;;5037239;28;25052;-74
2023/04/04 05:10:45;;;;;;;4.55;1.25;;;-3.90;99.90;;;;;;5019360;28;25136;-74
2023/04/04 05:13:13;;;;;;;4.45;1.27;;;-3.90;99.90;;;;;;5037431;28;25067;-74
2023/04/04 05:15:40;;;;;;;2.97;1.30;;;-3.90;99.90;;;;;;5037211;28;25062;-73
2023/04/04 05:18:08;;;;;;;5.47;1.23;;;-3.90;99.90;;;;;;5037317;28;25091;-75
2023/04/04 05:20:36;;;;;;;7.00;1.23;;;-3.90;99.90;;;;;;5036613;28;25105;-76
2023/04/04 05:23:03;;;;;;;3.45;1.30;;;-3.80;99.90;;;;;;5035791;28;25057;-76
2023/04/04 05:25:31;;;;;;;3.65;1.40;;;-3.80;99.90;;;;;;5018381;28;25088;-75
2023/04/04 05:27:59;;;;;;;3.35;1.08;;;-3.80;99.90;;;;;;5036635;28;25085;-76
2023/04/04 05:30:26;;;;;;;4.18;1.55;;;-3.80;99.90;;;;;;5035913;28;25073;-75
2023/04/04 05:32:54;;;;;;;3.00;1.30;;;-3.80;99.90;;;;;;5037169;28;25128;-75
2023/04/04 05:35:21;;;;;;;4.38;1.50;;;-3.70;99.90;;;;;;5036671;28;25072;-69
2023/04/04 05:37:48;;;;;;;4.88;1.48;;;-3.70;99.90;;;;;;5035844;28;25129;-69
2023/04/04 05:40:16;;;;;;;12.25;4.35;;;-3.60;99.90;;;;;;5036571;28;25106;-69
2023/04/04 05:42:44;;;;;;;22.35;7.63;;;-3.60;99.90;;;;;;5036372;28;25154;-69
2023/04/04 05:45:11;;;;;;;9.95;3.35;;;-3.60;99.90;;;;;;5036455;28;25128;-69
2023/04/04 05:47:44;;;;;;;5.10;1.92;;;-3.50;99.90;;;;;;5018631;28;25066;-71
2023/04/04 05:50:12;;;;;;;4.80;2.05;;;-3.40;99.90;;;;;;5035303;28;25128;-69
2023/04/04 05:52:39;;;;;;;3.40;1.50;;;-3.40;99.90;;;;;;5036181;28;25064;-69
2023/04/04 05:55:07;;;;;;;4.03;1.38;;;-3.30;99.90;;;;;;5018744;28;25062;-69
2023/04/04 05:57:35;;;;;;;6.05;1.20;;;-3.20;99.90;;;;;;5036222;28;25136;-69
2023/04/04 06:00:04;;;;;;;4.35;1.48;;;-3.20;99.90;;;;;;5018635;28;25077;-69
2023/04/04 06:02:36;;;;;;;3.80;1.30;;;-3.10;99.90;;;;;;5036363;28;25164;-69
2023/04/04 06:05:04;;;;;;;6.20;1.85;;;-3.00;99.90;;;;;;5036076;28;25098;-69
2023/04/04 06:07:31;;;;;;;3.70;1.77;;;-2.90;99.90;;;;;;5018571;28;25074;-69
2023/04/04 06:09:58;;;;;;;4.30;1.90;;;-2.90;99.90;;;;;;5018582;28;25062;-69
2023/04/04 06:12:26;;;;;;;6.15;1.55;;;-2.80;99.90;;;;;;5036687;28;25064;-69
2023/04/04 06:14:53;;;;;;;5.00;1.40;;;-2.80;99.90;;;;;;5036035;28;25060;-73
2023/04/04 06:17:21;;;;;;;5.05;1.60;;;-2.70;99.90;;;;;;5018593;28;25152;-72
2023/04/04 06:19:48;;;;;;;5.72;1.55;;;-2.60;99.90;;;;;;5017178;28;25127;-71
2023/04/04 06:22:16;;;;;;;4.57;1.30;;;-2.50;99.90;;;;;;5036778;28;25138;-71
2023/04/04 06:24:43;;;;;;;3.15;1.85;;;-2.50;99.90;;;;;;5035958;28;25072;-71
2023/04/04 06:27:11;;;;;;;5.45;1.80;;;-2.40;99.90;;;;;;5036523;28;25111;-72
2023/04/04 06:29:38;;;;;;;2.90;1.50;;;-2.30;99.90;;;;;;5036491;28;25049;-71
2023/04/04 06:32:05;;;;;;;3.38;1.60;;;-2.20;99.90;;;;;;5035476;28;25100;-71
2023/04/04 06:34:32;;;;;;;5.43;1.75;;;-2.10;99.90;;;;;;5035886;28;25066;-71
2023/04/04 06:37:00;;;;;;;5.55;1.70;;;-2.10;99.90;;;;;;5036454;28;25065;-71
2023/04/04 06:39:28;;;;;;;4.03;1.35;;;-2.00;99.90;;;;;;5035705;28;25065;-72
2023/04/04 06:41:56;;;;;;;3.95;1.50;;;-1.90;99.90;;;;;;5035827;28;25075;-72
2023/04/04 06:44:23;;;;;;;4.57;1.42;;;-1.80;99.90;;;;;;5018280;28;25070;-72
2023/04/04 06:46:51;;;;;;;7.47;1.60;;;-1.80;99.90;;;;;;5018052;28;25113;-72
2023/04/04 06:49:18;;;;;;;4.90;1.77;;;-1.70;99.90;;;;;;5038828;28;25130;-72
2023/04/04 06:51:45;;;;;;;5.00;1.52;;;-1.60;99.90;;;;;;5039625;28;25070;-72
2023/04/04 06:54:13;;;;;;;3.33;1.02;;;-1.60;99.90;;;;;;5021829;28;25139;-72
2023/04/04 06:56:40;;;;;;;8.05;2.03;;;-1.50;99.90;;;;;;5040149;28;25123;-71
2023/04/04 06:59:10;;;;;;;5.82;1.40;;;-1.50;99.90;;;;;;5039374;28;25058;-71
2023/04/04 07:01:38;;;;;;;4.15;1.33;;;-1.40;99.90;;;;;;5039323;28;25057;-71
2023/04/04 07:04:05;;;;;;;5.60;1.42;;;-1.30;99.90;;;;;;5038635;28;25084;-72
2023/04/04 07:06:33;;;;;;;4.15;1.50;;;-1.30;99.90;;;;;;5021838;28;25073;-72
2023/04/04 07:09:02;;;;;;;4.68;1.73;;;-1.20;99.90;;;;;;5021520;28;25079;-71
2023/04/04 07:11:30;;;;;;;3.97;1.45;;;-1.10;99.90;;;;;;5039170;28;25182;-74
2023/04/04 07:13:59;;;;;;;2.55;1.30;;;-1.10;99.90;;;;;;5039365;28;25068;-73
2023/04/04 07:16:27;;;;;;;5.32;1.63;;;-1.00;99.90;;;;;;5039177;28;25095;-73
2023/04/04 07:18:55;;;;;;;3.55;1.63;;;-1.00;99.90;;;;;;5038597;28;25071;-73
2023/04/04 07:21:23;;;;;;;10.57;2.05;;;-0.90;99.90;;;;;;5039619;28;25133;-73
2023/04/04 07:23:51;;;;;;;5.32;2.10;;;-0.90;99.90;;;;;;5038838;28;25073;-73
2023/04/04 07:26:18;;;;;;;5.80;2.28;;;-0.80;99.90;;;;;;5021465;28;25150;-74
2023/04/04 07:28:46;;;;;;;6.13;2.03;;;-0.70;99.90;;;;;;5039401;28;25086;-73
2023/04/04 07:31:14;;;;;;;5.60;1.83;;;-0.60;99.90;;;;;;5038841;28;25060;-74
2023/04/04 07:33:41;;;;;;;4.03;2.08;;;-0.50;99.90;;;;;;5039315;28;25069;-73
2023/04/04 07:36:08;;;;;;;3.25;1.65;;;-0.40;99.90;;;;;;5039188;28;25054;-73
2023/04/04 07:38:36;;;;;;;4.78;1.30;;;-0.30;99.90;;;;;;5020912;28;25059;-74
2023/04/04 07:41:03;;;;;;;4.25;1.85;;;-0.30;99.90;;;;;;5021093;28;25074;-73
2023/04/04 07:43:31;;;;;;;8.02;1.70;;;-0.20;99.90;;;;;;5039167;28;25056;-74
2023/04/04 07:45:58;;;;;;;4.68;1.67;;;0.00;99.90;;;;;;5038966;28;25070;-71
2023/04/04 07:48:26;;;;;;;3.58;1.10;;;0.10;99.90;;;;;;5023175;28;25065;-71
2023/04/04 07:50:54;;;;;;;5.13;1.10;;;0.20;99.90;;;;;;5018581;28;25099;-71
2023/04/04 07:53:21;;;;;;;4.60;1.58;;;0.30;99.90;;;;;;5018983;28;25063;-71
2023/04/04 07:55:49;;;;;;;4.30;1.50;;;0.40;99.90;;;;;;5018860;28;25114;-71
2023/04/04 07:58:16;;;;;;;3.55;1.55;;;0.50;99.90;;;;;;5017545;28;25111;-71
2023/04/04 08:00:43;;;;;;;6.70;1.83;;;0.70;99.90;;;;;;5018364;28;25058;-71
2023/04/04 08:03:11;;;;;;;4.95;1.55;;;0.70;99.90;;;;;;5001018;28;25100;-71
2023/04/04 08:05:39;;;;;;;6.68;1.73;;;0.80;99.90;;;;;;5001155;28;25122;-71
2023/04/04 08:08:07;;;;;;;5.40;1.40;;;0.90;99.90;;;;;;5018316;28;25122;-71
2023/04/04 08:10:35;;;;;;;2.90;1.15;;;1.00;99.90;;;;;;5018550;28;25057;-71
2023/04/04 08:13:04;;;;;;;4.93;1.33;;;1.10;99.90;;;;;;5018249;28;25064;-71
2023/04/04 08:15:32;;;;;;;4.65;1.02;;;1.20;99.90;;;;;;5001054;28;25111;-71
2023/04/04 08:17:59;;;;;;;3.70;1.50;;;1.30;99.90;;;;;;5000649;28;25050;-71
2023/04/04 08:20:27;;;;;;;2.85;1.10;;;1.40;99.90;;;;;;5018733;28;25077;-71
2023/04/04 08:22:56;;;;;;;2.60;1.00;;;1.50;99.90;;;;;;5018220;28;25115;-71
2023/04/04 08:25:24;;;;;;;4.25;0.65;;;1.50;99.90;;;;;;5018611;28;25065;-71
2023/04/04 08:27:52;;;;;;;2.72;1.08;;;1.60;99.90;;;;;;5018472;28;25061;-71
2023/04/04 08:30:20;;;;;;;7.60;1.98;;;1.70;99.90;;;;;;5000675;28;25124;-71
2023/04/04 08:32:48;;;;;;;7.50;1.33;;;1.70;99.90;;;;;;5000707;28;25064;-72
2023/04/04 08:35:15;;;;;;;4.75;1.20;;;1.80;99.90;;;;;;5017860;28;25078;-74
2023/04/04 08:37:46;;;;;;;2.83;1.27;;;1.80;99.90;;;;;;5017242;28;25061;-73
2023/04/04 08:40:15;;;;;;;4.25;1.10;;;1.90;99.90;;;;;;5018428;28;25064;-72
2023/04/04 08:42:44;;;;;;;4.22;0.80;;;1.90;99.90;;;;;;5000559;28;25119;-71
2023/04/04 08:45:13;;;;;;;4.72;1.23;;;2.00;99.90;;;;;;5018254;28;25075;-72
2023/04/04 08:47:42;;;;;;;5.68;0.82;;;2.10;99.90;;;;;;5026165;28;25083;-71
2023/04/04 08:50:10;;;;;;;3.35;0.90;;;2.20;99.90;;;;;;5020707;28;25070;-72
2023/04/04 08:52:38;;;;;;;4.28;0.80;;;2.20;99.90;;;;;;5037261;28;25053;-72
2023/04/04 08:55:07;;;;;;;2.30;1.10;;;2.30;99.90;;;;;;5019739;28;25059;-71
2023/04/04 08:57:35;;;;;;;3.28;0.90;;;2.30;99.90;;;;;;5037254;28;25100;-72
2023/04/04 09:00:05;;;;;;;2.40;0.80;;;2.40;99.90;;;;;;5019485;28;25156;-72
2023/04/04 09:02:41;;;;;;;3.78;1.10;;;2.40;99.90;;;;;;5037410;28;25069;-72
2023/04/04 09:05:09;;;;;;;2.50;0.98;;;2.50;99.90;;;;;;5037711;28;25125;-72
2023/04/04 09:07:38;;;;;;;1.83;0.82;;;2.50;99.90;;;;;;5037514;28;25065;-72
2023/04/04 09:10:07;;;;;;;11.13;1.65;;;2.50;99.90;;;;;;5037021;28;25120;-71
2023/04/04 09:12:36;;;;;;;1.33;0.60;;;2.60;99.90;;;;;;5036641;28;25119;-72
2023/04/04 09:15:04;;;;;;;4.10;0.82;;;2.60;99.90;;;;;;5036951;28;25021;-71
2023/04/04 09:17:33;;;;;;;2.72;0.68;;;2.70;99.90;;;;;;5037375;28;25060;-72
2023/04/04 09:20:23;;;;;;;2.28;0.85;;;2.70;99.90;;;;;;5036313;28;25067;-72
2023/04/04 09:22:51;;;;;;;3.05;1.00;;;2.70;99.90;;;;;;5037093;28;25049;-71
2023/04/04 09:25:18;;;;;;;2.55;0.75;;;2.80;99.90;;;;;;5037237;28;25125;-72
2023/04/04 09:27:48;;;;;;;3.00;1.00;;;2.80;99.90;;;;;;5036969;28;25137;-71
2023/04/04 09:30:16;;;;;;;3.33;0.90;;;2.90;99.30;;;;;;5036404;28;25106;-72
2023/04/04 09:32:43;;;;;;;2.17;0.82;;;2.90;98.60;;;;;;5036909;28;25089;-72
2023/04/04 09:35:15;;;;;;;1.92;0.80;;;2.90;98.70;;;;;;5018970;28;25141;-72
2023/04/04 09:37:43;;;;;;;2.95;1.02;;;2.90;98.70;;;;;;5036488;28;25094;-72
2023/04/04 09:40:12;;;;;;;2.60;0.85;;;2.90;99.00;;;;;;5036491;28;25112;-72
2023/04/04 09:42:40;;;;;;;2.97;0.75;;;3.00;99.00;;;;;;5018819;28;25121;-72
2023/04/04 09:45:10;;;;;;;3.15;0.70;;;3.00;99.10;;;;;;5037130;28;25140;-72
2023/04/04 09:47:42;;;;;;;3.25;0.90;;;3.00;99.20;;;;;;5028045;28;25090;-73
2023/04/04 09:50:20;;;;;;;2.42;0.90;;;2.90;99.40;;;;;;5016639;28;25093;-73
2023/04/04 09:52:49;;;;;;;5.45;1.20;;;3.00;99.50;;;;;;5016714;28;25058;-73
2023/04/04 09:55:17;;;;;;;2.13;1.00;;;3.10;99.90;;;;;;5017198;28;25102;-72
2023/04/04 09:57:46;;;;;;;2.97;0.95;;;3.00;99.70;;;;;;5017086;28;25103;-72
2023/04/04 10:00:20;;;;;;;3.97;1.02;;;3.10;99.80;;;;;;5016518;28;24831;-72
2023/04/04 10:02:48;;;;;;;5.10;1.10;;;3.10;99.90;;;;;;5016932;28;25059;-72
2023/04/04 10:05:16;;;;;;;1.50;0.90;;;3.10;99.60;;;;;;5016650;28;25055;-72
2023/04/04 10:07:46;;;;;;;3.30;1.10;;;3.20;99.20;;;;;;4998928;28;25072;-72
2023/04/04 10:10:14;;;;;;;3.95;0.80;;;3.20;98.10;;;;;;5016240;28;25109;-72
2023/04/04 10:12:46;;;;;;;3.03;1.23;;;3.30;97.30;;;;;;5016667;28;25070;-72
2023/04/04 10:15:16;;;;;;;3.40;0.90;;;3.30;96.90;;;;;;5016357;28;25070;-72
2023/04/04 10:17:44;;;;;;;2.03;0.80;;;3.40;96.60;;;;;;5016921;28;25081;-72
2023/04/04 10:20:12;;;;;;;4.93;0.90;;;3.40;96.60;;;;;;5016307;28;25079;-73
2023/04/04 10:22:41;;;;;;;2.42;1.00;;;3.50;96.80;;;;;;5016179;28;25071;-72
2023/04/04 10:25:09;;;;;;;2.72;0.93;;;3.60;96.40;;;;;;5020917;28;25116;-72
2023/04/04 10:27:37;;;;;;;3.10;1.30;;;3.60;96.30;;;;;;5020120;28;25076;-72
2023/04/04 10:30:06;;;;;;;6.90;1.73;;;3.70;95.60;;;;;;5020118;28;25063;-72
2023/04/04 10:32:53;;;;;;;1.98;1.00;;;3.80;95.60;;;;;;5020129;28;25058;-72
2023/04/04 10:35:23;;;;;;;5.45;1.08;;;3.80;95.30;;;;;;5020255;28;25052;-72
2023/04/04 10:37:58;;;;;;;2.78;1.00;;;3.80;95.80;;;;;;5019963;28;25070;-72
2023/04/04 10:40:37;;;;;;;5.93;1.52;;;3.90;95.90;;;;;;5019922;28;25161;-72
2023/04/04 10:43:06;;;;;;;3.42;0.80;;;4.00;95.30;;;;;;5020462;28;25090;-72
2023/04/04 10:45:37;;;;;;;3.15;1.20;;;4.10;94.90;;;;;;5019877;28;25078;-72
2023/04/04 10:48:05;;;;;;;3.38;1.25;;;4.10;94.10;;;;;;5031680;28;25070;-72
2023/04/04 10:50:35;;;;;;;3.20;1.00;;;4.20;93.80;;;;;;5039524;28;25125;-72
2023/04/04 10:53:03;;;;;;;2.88;0.88;;;4.20;92.60;;;;;;5039753;28;25060;-72
2023/04/04 10:55:31;;;;;;;2.10;0.85;;;4.30;93.40;;;;;;5022184;28;25061;-72
2023/04/04 10:58:00;;;;;;;3.88;0.90;;;4.30;93.10;;;;;;5040078;28;25099;-72
2023/04/04 11:00:27;;;;;;;3.13;0.80;;;4.40;91.80;;;;;;5022027;28;25094;-72
2023/04/04 11:02:59;;;;;;;1.40;0.80;;;4.40;91.40;;;;;;5039699;28;25110;-72
2023/04/04 11:05:45;;;;;;;2.17;1.00;;;4.50;90.40;;;;;;5039315;28;25063;-72
2023/04/04 11:08:24;;;;;;;3.83;1.23;;;4.50;91.10;;;;;;5038898;28;25112;-72
2023/04/04 11:10:53;;;;;;;7.47;1.67;;;4.50;90.60;;;;;;5039442;28;25128;-72
2023/04/04 11:13:38;;;;;;;2.90;1.58;;;4.50;90.50;;;;;;5040075;28;25100;-72
2023/04/04 11:16:14;;;;;;;3.35;0.70;;;4.60;90.60;;;;;;5039199;28;25117;-72
2023/04/04 11:18:44;;;;;;;2.33;1.02;;;4.70;90.70;;;;;;5039276;28;25070;-71
2023/04/04 11:21:18;;;;;;;2.47;1.20;;;4.70;90.30;;;;;;5039664;28;25058;-71
2023/04/04 11:23:49;;;;;;;2.72;0.98;;;4.80;90.40;;;;;;5038966;28;25080;-72
2023/04/04 11:26:29;;;;;;;2.10;1.20;;;4.80;90.30;;;;;;5039556;28;25077;-72
2023/04/04 11:28:59;;;;;;;3.38;1.98;;;4.90;90.00;;;;;;5021330;28;25132;-72
2023/04/04 11:31:28;;;;;;;3.00;0.90;;;5.00;87.50;;;;;;5039043;28;25079;-71
2023/04/04 11:34:07;;;;;;;2.70;1.00;;;5.00;87.50;;;;;;5039003;28;25065;-71
2023/04/04 11:36:38;;;;;;;2.67;0.93;;;5.10;84.50;;;;;;5020457;28;25051;-71
2023/04/04 11:39:14;;;;;;;2.45;0.70;;;5.10;82.30;;;;;;5038801;28;25118;-72
2023/04/04 11:42:13;;;;;;;1.77;0.80;;;5.20;81.90;;;;;;5038915;28;25070;-72
2023/04/04 11:45:03;;;;;;;3.17;0.90;;;5.20;81.40;;;;;;5038587;28;25063;-72
2023/04/04 11:47:31;;;;;;;3.10;1.15;;;5.20;80.40;;;;;;5038400;28;25082;-71
2023/04/04 11:50:01;;;;;;;3.08;1.35;;;5.30;81.10;;;;;;5038559;28;25061;-71
2023/04/04 11:52:37;;;;;;;2.33;0.80;;;5.40;81.50;;;;;;5039263;28;25100;-71
2023/04/04 11:55:16;;;;;;;1.77;0.90;;;5.40;80.60;;;;;;5038255;28;25049;-72
2023/04/04 11:57:43;;;;;;;2.88;1.15;;;5.40;78.60;;;;;;5038525;28;25072;-71
2023/04/04 12:00:11;;;;;;;1.48;0.70;;;5.50;76.40;;;;;;5030670;28;25075;-71
2023/04/04 12:02:38;;;;;;;2.03;1.02;;;5.60;75.90;;;;;;5020717;28;25079;-72
2023/04/04 12:05:06;;;;;;;2.35;0.88;;;5.70;75.00;;;;;;5020606;28;25102;-72
2023/04/04 12:07:34;;;;;;;2.55;0.70;;;5.80;75.40;;;;;;5038406;28;25076;-71
2023/04/04 12:10:03;;;;;;;2.30;0.98;;;6.00;75.40;;;;;;5020846;28;25059;-72
2023/04/04 12:12:31;;;;;;;5.03;1.17;;;6.00;76.10;;;;;;5038126;28;25056;-71
2023/04/04 12:14:59;;;;;;;2.55;0.93;;;6.10;75.40;;;;;;5038536;28;25087;-71
2023/04/04 12:17:29;;;;;;;1.75;0.68;;;6.20;73.80;;;;;;5020475;28;25041;-71
2023/04/04 12:19:57;;;;;;;4.55;0.88;;;6.30;73.10;;;;;;5020348;28;25109;-72
2023/04/04 12:22:25;;;;;;;3.97;0.98;;;6.40;71.60;;;;;;5020276;28;25060;-74
2023/04/04 12:24:52;;;;;;;2.65;0.70;;;6.60;71.10;;;;;;5037769;28;25066;-75
2023/04/04 12:27:20;;;;;;;2.35;0.90;;;6.80;71.50;;;;;;5037992;28;25094;-73
2023/04/04 12:29:49;;;;;;;3.42;0.75;;;7.00;72.10;;;;;;5019571;28;25058;-73
2023/04/04 12:32:17;;;;;;;6.18;1.20;;;7.00;70.60;;;;;;5020085;28;25097;-70
2023/04/04 12:34:48;;;;;;;2.60;0.75;;;7.20;70.80;;;;;;5037718;28;25147;-70
2023/04/04 12:37:17;;;;;;;4.18;1.52;;;7.20;70.40;;;;;;5037805;28;25122;-71
2023/04/04 12:39:51;;;;;;;2.58;0.90;;;7.20;70.30;;;;;;5037495;28;25057;-71
2023/04/04 12:42:23;;;;;;;1.88;0.70;;;7.20;67.80;;;;;;5037531;28;25077;-71
2023/04/04 12:44:52;;;;;;;4.07;1.08;;;7.30;66.40;;;;;;5019928;28;25054;-71
2023/04/04 12:47:22;;;;;;;2.63;0.90;;;7.30;66.80;;;;;;5032254;28;25121;-71
2023/04/04 12:49:56;;;;;;;2.53;1.10;;;7.40;66.60;;;;;;5017520;28;25059;-71
2023/04/04 12:52:33;;;;;;;2.47;1.05;;;7.40;67.80;;;;;;5017490;28;25053;-71
2023/04/04 12:55:11;;;;;;;4.13;1.45;;;7.50;67.20;;;;;;5017541;28;25064;-71
2023/04/04 12:57:39;;;;;;;3.30;1.08;;;7.50;65.90;;;;;;5018056;28;25142;-71
2023/04/04 13:00:09;;;;;;;2.97;1.23;;;7.60;66.20;;;;;;4999947;28;25091;-72